createdAt,value
2017-12-21T00:00:40.492Z,20.48
2017-12-21T00:03:08.429Z,17.40
2017-12-21T00:05:36.442Z,18.62
2017-12-21T00:08:04.638Z,16.92
2017-12-21T00:10:32.671Z,17.98
2017-12-21T00:13:00.630Z,16.77
2017-12-21T00:15:29.415Z,18.37
2017-12-21T00:17:58.173Z,17.73
2017-12-21T00:20:26.163Z,19.08
2017-12-21T00:22:54.083Z,18.95
2017-12-21T00:25:22.080Z,32.80
2017-12-21T00:27:50.007Z,18.37
2017-12-21T00:30:18.008Z,21.62
2017-12-21T00:32:45.960Z,17.92
2017-12-21T00:35:13.957Z,14.60
2017-12-21T00:37:42.124Z,13.07
2017-12-21T00:40:10.118Z,16.67
2017-12-21T00:42:38.104Z,12.93
2017-12-21T00:45:06.171Z,21.40
2017-12-21T00:47:34.163Z,16.25
2017-12-21T00:50:02.180Z,13.30
2017-12-21T00:52:30.202Z,12.30
2017-12-21T00:54:58.890Z,11.77
2017-12-21T00:57:27.646Z,16.48
2017-12-21T00:59:55.536Z,15.73
2017-12-21T01:02:23.493Z,18.62
2017-12-21T01:04:51.390Z,23.33
2017-12-21T01:07:19.377Z,15.20
2017-12-21T01:09:47.270Z,12.07
2017-12-21T01:12:15.233Z,13.80
2017-12-21T01:14:43.132Z,18.45
2017-12-21T01:17:11.072Z,14.23
2017-12-21T01:19:38.970Z,27.65
2017-12-21T01:22:06.920Z,18.67
2017-12-21T01:24:34.813Z,11.63
2017-12-21T01:27:02.754Z,16.90
2017-12-21T01:29:30.647Z,15.02
2017-12-21T01:31:58.580Z,13.00
2017-12-21T01:34:26.465Z,16.75
2017-12-21T01:36:54.626Z,12.98
2017-12-21T01:39:22.529Z,14.00
2017-12-21T01:41:50.526Z,11.20
2017-12-21T01:44:19.248Z,10.48
2017-12-21T01:46:47.176Z,13.98
2017-12-21T01:49:15.121Z,13.85
2017-12-21T01:51:43.063Z,15.38
2017-12-21T01:54:11.021Z,11.05
2017-12-21T01:56:38.940Z,11.48
2017-12-21T01:59:06.906Z,9.65
2017-12-21T02:01:34.841Z,13.20
2017-12-21T02:04:02.789Z,12.90
2017-12-21T02:06:30.932Z,20.98
2017-12-21T02:08:58.890Z,13.07
2017-12-21T02:11:26.852Z,12.60
2017-12-21T02:13:54.809Z,14.70
2017-12-21T02:16:22.702Z,10.75
2017-12-21T02:18:50.661Z,16.35
2017-12-21T02:21:18.650Z,13.05
2017-12-21T02:23:46.656Z,10.85
2017-12-21T02:26:14.625Z,13.10
2017-12-21T02:28:42.640Z,10.23
2017-12-21T02:31:10.619Z,11.70
2017-12-21T02:33:38.647Z,8.82
2017-12-21T02:36:10.229Z,11.35
2017-12-21T02:38:38.254Z,11.12
2017-12-21T02:41:06.992Z,10.13
2017-12-21T02:43:35.022Z,12.65
2017-12-21T02:46:02.997Z,10.38
2017-12-21T02:48:31.022Z,9.73
2017-12-21T02:50:59.003Z,11.80
2017-12-21T02:53:26.974Z,13.48
2017-12-21T02:55:55.005Z,10.07
2017-12-21T02:58:23.006Z,10.50
2017-12-21T03:00:51.026Z,10.48
2017-12-21T03:03:18.977Z,12.18
2017-12-21T03:05:47.756Z,13.57
2017-12-21T03:08:15.683Z,12.80
2017-12-21T03:10:43.645Z,10.30
2017-12-21T03:13:11.619Z,9.65
2017-12-21T03:15:39.690Z,9.93
2017-12-21T03:18:07.601Z,11.12
2017-12-21T03:20:35.605Z,14.80
2017-12-21T03:23:03.537Z,18.15
2017-12-21T03:25:31.497Z,9.23
2017-12-21T03:28:03.384Z,10.82
2017-12-21T03:30:32.130Z,13.57
2017-12-21T03:33:00.060Z,8.63
2017-12-21T03:35:28.037Z,8.70
2017-12-21T03:37:55.951Z,9.38
2017-12-21T03:40:23.966Z,12.00
2017-12-21T03:42:51.882Z,7.78
2017-12-21T03:45:19.829Z,7.25
2017-12-21T03:47:47.738Z,6.72
2017-12-21T03:50:15.717Z,8.20
2017-12-21T03:52:43.644Z,7.80
2017-12-21T03:55:11.607Z,7.28
2017-12-21T03:57:39.703Z,12.30
2017-12-21T04:00:07.657Z,8.63
2017-12-21T04:02:35.618Z,10.13
2017-12-21T04:05:07.541Z,7.20
2017-12-21T04:07:36.251Z,9.60
2017-12-21T04:10:04.177Z,7.22
2017-12-21T04:12:32.107Z,8.20
2017-12-21T04:15:00.004Z,7.97
2017-12-21T04:17:27.988Z,7.03
2017-12-21T04:19:55.900Z,9.82
2017-12-21T04:22:23.819Z,6.30
2017-12-21T04:24:51.696Z,11.77
2017-12-21T04:27:21.759Z,7.72
2017-12-21T04:29:49.635Z,8.23
2017-12-21T04:32:17.578Z,8.27
2017-12-21T04:34:45.497Z,7.00
2017-12-21T04:37:13.453Z,6.45
2017-12-21T04:39:41.329Z,7.15
2017-12-21T04:42:09.309Z,6.65
2017-12-21T04:44:37.213Z,6.80
2017-12-21T04:47:05.201Z,5.62
2017-12-21T04:49:33.108Z,9.10
2017-12-21T04:52:01.065Z,6.72
2017-12-21T04:54:29.002Z,7.68
2017-12-21T04:56:57.770Z,8.88
2017-12-21T04:59:25.655Z,8.05
2017-12-21T05:01:53.565Z,6.93
2017-12-21T05:04:21.516Z,6.80
2017-12-21T05:06:49.450Z,5.90
2017-12-21T05:09:17.403Z,5.15
2017-12-21T05:11:45.331Z,6.22
2017-12-21T05:14:13.294Z,6.97
2017-12-21T05:16:41.194Z,6.72
2017-12-21T05:19:09.137Z,6.40
2017-12-21T05:21:37.069Z,7.07
2017-12-21T05:24:05.074Z,5.60
2017-12-21T05:26:33.954Z,8.77
2017-12-21T05:29:01.882Z,6.50
2017-12-21T05:31:29.822Z,5.10
2017-12-21T05:33:57.750Z,6.03
2017-12-21T05:36:25.654Z,7.00
2017-12-21T05:38:53.564Z,5.00
2017-12-21T05:41:21.458Z,5.20
2017-12-21T05:43:50.158Z,5.15
2017-12-21T05:46:18.084Z,5.53
2017-12-21T05:48:46.025Z,5.65
2017-12-21T05:51:13.939Z,6.45
2017-12-21T05:53:41.882Z,6.25
2017-12-21T05:56:09.881Z,6.43
2017-12-21T05:58:37.856Z,9.50
2017-12-21T06:01:05.806Z,6.47
2017-12-21T06:03:33.721Z,6.12
2017-12-21T06:06:01.719Z,10.18
2017-12-21T06:08:29.617Z,9.88
2017-12-21T06:10:57.549Z,11.05
2017-12-21T06:13:25.420Z,6.62
2017-12-21T06:15:53.342Z,8.32
2017-12-21T06:18:21.272Z,10.95
2017-12-21T06:20:49.234Z,11.63
2017-12-21T06:23:17.275Z,10.10
2017-12-21T06:25:45.210Z,8.02
2017-12-21T06:28:13.122Z,8.63
2017-12-21T06:30:41.059Z,9.18
2017-12-21T06:33:08.945Z,7.35
2017-12-21T06:35:36.889Z,7.95
2017-12-21T06:38:04.776Z,7.22
2017-12-21T06:40:32.702Z,9.98
2017-12-21T06:43:00.640Z,47.83
2017-12-21T06:45:28.572Z,12.75
2017-12-21T06:48:01.244Z,10.73
2017-12-21T06:50:29.191Z,9.15
2017-12-21T06:52:57.083Z,12.37
2017-12-21T06:55:25.020Z,12.75
2017-12-21T06:57:52.919Z,10.73
2017-12-21T07:00:24.106Z,8.90
2017-12-21T07:02:55.104Z,11.07
2017-12-21T07:05:25.800Z,13.00
2017-12-21T07:07:57.585Z,15.30
2017-12-21T07:10:29.224Z,11.90
2017-12-21T07:13:00.063Z,12.30
2017-12-21T07:15:32.453Z,11.23
2017-12-21T07:18:03.722Z,13.00
2017-12-21T07:20:31.814Z,11.48
2017-12-21T07:22:59.711Z,12.82
2017-12-21T07:25:28.386Z,10.02
2017-12-21T07:27:56.300Z,12.85
2017-12-21T07:30:24.166Z,11.65
2017-12-21T07:32:52.125Z,10.60
2017-12-21T07:35:24.210Z,12.05
2017-12-21T07:37:55.683Z,15.57
2017-12-21T07:40:27.239Z,11.18
2017-12-21T07:42:58.095Z,12.30
2017-12-21T07:45:26.149Z,12.07
2017-12-21T07:47:54.105Z,13.35
2017-12-21T07:50:22.005Z,13.40
2017-12-21T07:52:49.945Z,12.35
2017-12-21T07:55:17.825Z,14.35
2017-12-21T07:57:45.780Z,12.70
2017-12-21T08:00:13.669Z,12.75
2017-12-21T08:02:42.389Z,14.82
2017-12-21T08:05:10.293Z,14.30
2017-12-21T08:07:38.239Z,12.55
2017-12-21T08:10:06.122Z,12.15
2017-12-21T08:12:34.152Z,11.20
2017-12-21T08:15:02.035Z,13.62
2017-12-21T08:17:31.232Z,38.08
2017-12-21T08:19:59.129Z,56.90
2017-12-21T08:22:27.393Z,29.52
2017-12-21T08:24:55.254Z,14.00
2017-12-21T08:27:23.260Z,19.80
2017-12-21T08:29:51.147Z,18.17
2017-12-21T08:32:19.075Z,12.30
2017-12-21T08:34:47.036Z,19.12
2017-12-21T08:37:15.145Z,13.30
2017-12-21T08:39:43.080Z,15.23
2017-12-21T08:42:12.548Z,30.12
2017-12-21T08:44:41.498Z,17.23
2017-12-21T08:47:10.559Z,14.60
2017-12-21T08:49:38.502Z,14.63
2017-12-21T08:52:06.387Z,10.23
2017-12-21T08:54:34.394Z,12.37
2017-12-21T08:57:02.307Z,14.93
2017-12-21T08:59:30.249Z,15.98
2017-12-21T09:01:58.136Z,13.73
2017-12-21T09:04:26.139Z,16.83
2017-12-21T09:06:54.683Z,15.10
2017-12-21T09:09:22.626Z,11.27
2017-12-21T09:11:50.547Z,12.02
2017-12-21T09:14:18.483Z,10.50
2017-12-21T09:16:46.492Z,9.18
2017-12-21T09:19:14.419Z,13.20
2017-12-21T09:21:42.302Z,9.98
2017-12-21T09:24:11.115Z,10.98
2017-12-21T09:26:39.093Z,12.27
2017-12-21T09:29:07.055Z,11.63
2017-12-21T09:31:34.987Z,8.32
2017-12-21T09:34:02.881Z,14.07
2017-12-21T09:36:31.618Z,10.32
2017-12-21T09:38:59.517Z,8.63
2017-12-21T09:41:27.471Z,9.65
2017-12-21T09:43:55.365Z,12.73
2017-12-21T09:46:23.860Z,7.57
2017-12-21T09:48:53.436Z,9.55
2017-12-21T09:51:21.365Z,8.93
2017-12-21T09:53:49.250Z,13.13
2017-12-21T09:56:17.218Z,9.90
2017-12-21T09:58:45.126Z,10.10
2017-12-21T10:01:13.099Z,9.27
2017-12-21T10:03:44.761Z,12.63
2017-12-21T10:06:17.146Z,10.85
2017-12-21T10:08:46.154Z,8.77
2017-12-21T10:11:14.091Z,9.32
2017-12-21T10:13:41.986Z,9.65
2017-12-21T10:16:10.738Z,11.95
2017-12-21T10:18:38.633Z,9.30
2017-12-21T10:21:06.571Z,10.32
2017-12-21T10:23:34.485Z,8.85
2017-12-21T10:26:02.462Z,9.88
2017-12-21T10:28:30.420Z,7.50
2017-12-21T10:30:59.142Z,9.07
2017-12-21T10:33:27.048Z,9.80
2017-12-21T10:35:55.004Z,6.82
2017-12-21T10:38:22.949Z,7.43
2017-12-21T10:40:50.886Z,10.10
2017-12-21T10:43:18.798Z,9.95
2017-12-21T10:45:46.700Z,7.57
2017-12-21T10:48:14.645Z,5.70
2017-12-21T10:50:42.544Z,6.90
2017-12-21T10:53:10.483Z,6.45
2017-12-21T10:55:38.381Z,7.85
2017-12-21T10:58:06.451Z,8.82
2017-12-21T11:00:34.350Z,7.25
2017-12-21T11:03:02.302Z,8.32
2017-12-21T11:05:30.239Z,6.03
2017-12-21T11:07:58.196Z,8.82
2017-12-21T11:10:26.090Z,8.38
2017-12-21T11:12:54.059Z,8.55
2017-12-21T11:15:21.996Z,9.10
2017-12-21T11:17:49.960Z,12.07
2017-12-21T11:20:17.888Z,11.00
2017-12-21T11:22:45.856Z,9.95
2017-12-21T11:25:14.542Z,8.95
2017-12-21T11:27:43.475Z,10.75
2017-12-21T11:30:11.396Z,9.80
2017-12-21T11:32:39.422Z,10.20
2017-12-21T11:35:07.362Z,9.00
2017-12-21T11:37:36.149Z,9.82
2017-12-21T11:40:04.175Z,9.95
2017-12-21T11:42:32.113Z,8.40
2017-12-21T11:45:00.056Z,9.65
2017-12-21T11:47:28.802Z,10.75
2017-12-21T11:49:57.061Z,11.77
2017-12-21T11:52:24.986Z,10.35
2017-12-21T11:54:52.953Z,10.77
2017-12-21T11:57:22.494Z,9.43
2017-12-21T11:59:50.454Z,11.30
2017-12-21T12:02:18.393Z,9.52
2017-12-21T12:04:46.351Z,12.60
2017-12-21T12:07:14.367Z,11.60
2017-12-21T12:09:42.417Z,9.95
2017-12-21T12:12:10.291Z,11.12
2017-12-21T12:14:38.232Z,10.55
2017-12-21T12:17:06.142Z,9.07
2017-12-21T12:19:34.670Z,16.75
2017-12-21T12:22:02.594Z,11.38
2017-12-21T12:24:30.659Z,10.55
2017-12-21T12:27:02.582Z,9.70
2017-12-21T12:29:30.688Z,11.55
2017-12-21T12:31:58.790Z,8.02
2017-12-21T12:34:26.913Z,8.82
2017-12-21T12:36:54.920Z,8.82
2017-12-21T12:39:22.899Z,7.90
2017-12-21T12:41:51.131Z,7.35
2017-12-21T12:44:19.111Z,7.12
2017-12-21T12:46:47.049Z,7.12
2017-12-21T12:49:15.017Z,7.03
2017-12-21T12:51:43.490Z,6.70
2017-12-21T12:54:11.392Z,4.50
2017-12-21T12:56:39.428Z,4.15
2017-12-21T12:59:07.636Z,6.07
2017-12-21T13:01:35.617Z,4.72
2017-12-21T13:04:03.532Z,4.20
2017-12-21T13:06:31.487Z,6.30
2017-12-21T13:08:59.423Z,6.95
2017-12-21T13:11:28.162Z,5.75
2017-12-21T13:13:56.068Z,3.47
2017-12-21T13:16:24.053Z,4.05
2017-12-21T13:18:51.984Z,3.35
2017-12-21T13:21:19.973Z,3.28
2017-12-21T13:23:47.882Z,3.00
2017-12-21T13:26:16.032Z,3.87
2017-12-21T13:28:43.956Z,3.10
2017-12-21T13:31:12.878Z,3.20
2017-12-21T13:33:40.793Z,2.97
2017-12-21T13:36:08.783Z,2.78
2017-12-21T13:38:36.728Z,3.05
2017-12-21T13:41:04.697Z,2.67
2017-12-21T13:43:32.616Z,2.60
2017-12-21T13:46:00.593Z,2.30
2017-12-21T13:48:28.505Z,3.35
2017-12-21T13:50:56.516Z,4.10
2017-12-21T13:53:24.479Z,4.00
2017-12-21T13:55:52.473Z,3.25
2017-12-21T13:58:20.502Z,3.25
2017-12-21T14:00:48.473Z,3.97
2017-12-21T14:03:16.473Z,3.80
2017-12-21T14:05:44.405Z,3.87
2017-12-21T14:08:12.356Z,2.83
2017-12-21T14:10:40.315Z,4.43
2017-12-21T14:13:09.070Z,3.00
2017-12-21T14:15:37.016Z,3.10
2017-12-21T14:18:05.251Z,4.75
2017-12-21T14:20:33.150Z,2.78
2017-12-21T14:23:01.107Z,2.67
2017-12-21T14:25:29.076Z,2.40
2017-12-21T14:27:57.083Z,3.17
2017-12-21T14:30:25.135Z,2.95
2017-12-21T14:32:53.155Z,3.00
2017-12-21T14:35:21.141Z,2.60
2017-12-21T14:37:49.118Z,2.90
2017-12-21T14:40:17.810Z,3.35
2017-12-21T14:42:46.595Z,3.90
2017-12-21T14:45:14.564Z,2.80
2017-12-21T14:47:45.481Z,3.45
2017-12-21T14:50:13.394Z,4.00
2017-12-21T14:52:41.439Z,4.45
2017-12-21T14:55:09.408Z,8.23
2017-12-21T14:57:37.400Z,2.75
2017-12-21T15:00:05.337Z,2.67
2017-12-21T15:02:33.319Z,3.55
2017-12-21T15:05:01.314Z,2.47
2017-12-21T15:07:29.240Z,2.72
2017-12-21T15:09:57.379Z,3.30
2017-12-21T15:12:25.311Z,2.60
2017-12-21T15:14:53.298Z,2.50
2017-12-21T15:17:25.676Z,3.17
2017-12-21T15:19:53.650Z,2.95
2017-12-21T15:22:21.614Z,3.83
2017-12-21T15:24:49.592Z,3.28
2017-12-21T15:27:17.565Z,5.57
2017-12-21T15:29:45.699Z,4.85
2017-12-21T15:32:13.734Z,4.65
2017-12-21T15:34:41.798Z,4.68
2017-12-21T15:37:09.788Z,4.43
2017-12-21T15:39:37.872Z,4.55
2017-12-21T15:42:05.968Z,5.28
2017-12-21T15:44:33.927Z,4.60
2017-12-21T15:47:01.828Z,3.60
2017-12-21T15:49:29.811Z,4.90
2017-12-21T15:51:57.721Z,4.28
2017-12-21T15:54:27.728Z,3.80
2017-12-21T15:56:55.622Z,4.10
2017-12-21T15:59:23.571Z,4.82
2017-12-21T16:01:51.503Z,3.92
2017-12-21T16:04:19.452Z,4.32
2017-12-21T16:06:48.607Z,4.40
2017-12-21T16:09:16.545Z,5.50
2017-12-21T16:11:44.526Z,6.25
2017-12-21T16:14:12.537Z,6.12
2017-12-21T16:16:40.608Z,5.62
2017-12-21T16:19:08.499Z,5.80
2017-12-21T16:21:36.478Z,5.20
2017-12-21T16:24:04.375Z,6.75
2017-12-21T16:26:32.331Z,7.15
2017-12-21T16:29:00.233Z,7.68
2017-12-21T16:31:28.199Z,10.25
2017-12-21T16:33:56.492Z,10.00
2017-12-21T16:36:27.963Z,8.60
2017-12-21T16:38:55.877Z,7.07
2017-12-21T16:41:23.876Z,7.00
2017-12-21T16:43:51.809Z,5.80
2017-12-21T16:46:20.589Z,8.18
2017-12-21T16:48:48.535Z,10.77
2017-12-21T16:51:21.887Z,5.62
2017-12-21T16:53:52.683Z,6.20
2017-12-21T16:56:20.849Z,6.78
2017-12-21T16:58:51.145Z,5.85
2017-12-21T17:01:19.105Z,4.45
2017-12-21T17:03:47.025Z,5.60
2017-12-21T17:06:15.004Z,7.55
2017-12-21T17:08:42.906Z,5.62
2017-12-21T17:11:11.003Z,7.62
2017-12-21T17:13:38.924Z,8.05
2017-12-21T17:16:12.843Z,6.05
2017-12-21T17:18:41.708Z,8.25
2017-12-21T17:21:15.366Z,8.65
2017-12-21T17:23:45.188Z,8.23
2017-12-21T17:26:13.493Z,8.45
2017-12-21T17:28:41.458Z,8.82
2017-12-21T17:31:09.392Z,7.75
2017-12-21T17:33:38.089Z,13.40
2017-12-21T17:36:09.580Z,11.55
2017-12-21T17:38:38.285Z,12.98
2017-12-21T17:41:06.263Z,11.70
2017-12-21T17:43:35.049Z,10.07
2017-12-21T17:46:02.992Z,9.07
2017-12-21T17:48:31.027Z,9.27
2017-12-21T17:50:58.988Z,9.32
2017-12-21T17:53:27.006Z,9.65
2017-12-21T17:55:55.689Z,12.77
2017-12-21T17:58:24.419Z,11.18
2017-12-21T18:00:52.390Z,16.02
2017-12-21T18:03:21.158Z,14.87
2017-12-21T18:05:49.123Z,18.45
2017-12-21T18:08:17.194Z,14.45
2017-12-21T18:10:45.176Z,14.95
2017-12-21T18:13:13.176Z,10.68
2017-12-21T18:15:41.126Z,9.15
2017-12-21T18:18:09.140Z,9.20
2017-12-21T18:20:37.092Z,10.13
2017-12-21T18:23:05.194Z,9.43
2017-12-21T18:25:33.299Z,8.68
2017-12-21T18:28:02.298Z,10.15
2017-12-21T18:30:31.094Z,11.43
2017-12-21T18:32:59.030Z,19.58
2017-12-21T18:35:27.080Z,42.10
2017-12-21T18:37:55.082Z,29.00
2017-12-21T18:40:23.847Z,25.40
2017-12-21T18:42:51.791Z,19.08
2017-12-21T18:45:19.833Z,13.27
2017-12-21T18:47:48.926Z,12.57
2017-12-21T18:50:16.955Z,15.73
2017-12-21T18:52:44.984Z,12.05
2017-12-21T18:55:12.966Z,14.55
2017-12-21T18:57:40.906Z,14.70
2017-12-21T19:00:08.958Z,17.75
2017-12-21T19:02:37.686Z,13.40
2017-12-21T19:05:05.752Z,15.05
2017-12-21T19:07:33.700Z,16.40
2017-12-21T19:10:02.469Z,27.23
2017-12-21T19:12:30.412Z,26.33
2017-12-21T19:15:04.098Z,25.23
2017-12-21T19:17:32.377Z,23.30
2017-12-21T19:20:00.437Z,24.95
2017-12-21T19:22:28.403Z,23.62
2017-12-21T19:24:57.688Z,29.92
2017-12-21T19:27:25.711Z,27.23
2017-12-21T19:29:53.827Z,21.15
2017-12-21T19:32:22.651Z,22.62
2017-12-21T19:34:50.867Z,29.77
2017-12-21T19:37:22.101Z,17.50
2017-12-21T19:39:50.246Z,22.35
2017-12-21T19:42:21.272Z,27.20
2017-12-21T19:44:49.296Z,31.62
2017-12-21T19:47:17.409Z,23.75
2017-12-21T19:49:45.499Z,22.83
2017-12-21T19:52:13.607Z,20.65
2017-12-21T19:54:42.490Z,30.85
2017-12-21T19:57:11.337Z,28.17
2017-12-21T19:59:39.263Z,21.95
2017-12-21T20:02:07.329Z,26.42
2017-12-21T20:04:35.405Z,24.50
2017-12-21T20:07:04.292Z,22.00
2017-12-21T20:09:32.221Z,25.12
2017-12-21T20:12:00.184Z,20.75
2017-12-21T20:14:28.085Z,19.75
2017-12-21T20:16:56.056Z,19.80
2017-12-21T20:19:23.965Z,17.35
2017-12-21T20:21:56.728Z,15.00
2017-12-21T20:24:24.686Z,15.35
2017-12-21T20:26:52.653Z,24.70
2017-12-21T20:29:20.618Z,27.13
2017-12-21T20:31:48.604Z,23.90
2017-12-21T20:34:16.750Z,22.85
2017-12-21T20:36:45.690Z,30.95
2017-12-21T20:39:14.794Z,30.92
2017-12-21T20:41:42.849Z,29.48
2017-12-21T20:44:10.770Z,28.08
2017-12-21T20:46:38.670Z,20.92
2017-12-21T20:49:06.642Z,22.37
2017-12-21T20:51:34.580Z,28.20
2017-12-21T20:54:02.568Z,27.67
2017-12-21T20:56:30.471Z,25.12
2017-12-21T20:58:58.406Z,22.52
2017-12-21T21:01:27.818Z,20.65
2017-12-21T21:03:55.753Z,23.30
2017-12-21T21:06:27.420Z,31.50
2017-12-21T21:08:56.211Z,24.45
2017-12-21T21:11:24.191Z,21.73
2017-12-21T21:13:52.164Z,24.23
2017-12-21T21:16:20.099Z,31.30
2017-12-21T21:18:48.864Z,19.70
2017-12-21T21:21:16.806Z,22.92
2017-12-21T21:23:45.128Z,30.40
2017-12-21T21:26:13.829Z,27.37
2017-12-21T21:28:42.036Z,24.30
2017-12-21T21:31:09.986Z,25.70
2017-12-21T21:33:37.987Z,37.95
2017-12-21T21:36:05.900Z,27.35
2017-12-21T21:38:34.662Z,28.80
2017-12-21T21:41:02.602Z,16.73
2017-12-21T21:43:30.566Z,19.33
2017-12-21T21:45:58.478Z,21.10
2017-12-21T21:48:26.456Z,21.33
2017-12-21T21:50:54.366Z,16.27
2017-12-21T21:53:22.320Z,21.58
2017-12-21T21:55:50.237Z,19.27
2017-12-21T21:58:18.134Z,22.80
2017-12-21T22:00:46.135Z,33.40
2017-12-21T22:03:14.052Z,21.33
2017-12-21T22:05:42.052Z,29.58
2017-12-21T22:08:10.880Z,16.85
2017-12-21T22:10:38.920Z,17.45
2017-12-21T22:13:07.588Z,15.82
2017-12-21T22:15:35.590Z,19.23
2017-12-21T22:18:03.532Z,18.98
2017-12-21T22:20:31.522Z,19.77
2017-12-21T22:23:00.191Z,21.12
2017-12-21T22:25:28.158Z,15.77
2017-12-21T22:27:56.232Z,24.10
2017-12-21T22:30:24.226Z,29.40
2017-12-21T22:32:53.737Z,30.20
2017-12-21T22:35:21.738Z,34.38
2017-12-21T22:37:52.656Z,32.25
2017-12-21T22:40:25.089Z,24.95
2017-12-21T22:42:56.721Z,45.10
2017-12-21T22:45:28.149Z,12.55
2017-12-21T22:47:57.044Z,14.75
2017-12-21T22:50:27.766Z,20.08
2017-12-21T22:52:59.109Z,19.77
2017-12-21T22:55:30.049Z,20.60
2017-12-21T22:57:59.655Z,56.28
2017-12-21T23:00:27.683Z,28.17
2017-12-21T23:02:55.654Z,22.58
2017-12-21T23:05:23.636Z,52.30
2017-12-21T23:07:51.586Z,21.95
2017-12-21T23:10:19.476Z,51.88
2017-12-21T23:12:47.411Z,25.80
2017-12-21T23:15:15.325Z,34.25
2017-12-21T23:17:44.023Z,28.75
2017-12-21T23:20:11.923Z,18.10
2017-12-21T23:22:39.873Z,48.53
2017-12-21T23:25:07.806Z,24.27
2017-12-21T23:27:35.816Z,27.27
2017-12-21T23:30:03.750Z,51.17
2017-12-21T23:32:31.723Z,32.70
2017-12-21T23:34:59.652Z,31.77
2017-12-21T23:37:27.635Z,23.30
2017-12-21T23:39:55.535Z,27.98
2017-12-21T23:42:24.269Z,39.03
2017-12-21T23:44:52.189Z,28.45
2017-12-21T23:47:20.133Z,26.30
2017-12-21T23:49:48.046Z,36.63
2017-12-21T23:52:16.825Z,38.45
2017-12-21T23:54:45.580Z,45.08
2017-12-21T23:57:13.749Z,19.17
2017-12-21T23:59:41.691Z,16.48
